Time;durP1;ratioP1;P1;durP2;ratioP2;P2;SDS_P1;SDS_P2;PMS_P1;PMS_P2;Temp;Humidity;BMP_temperature;BMP_pressure;BME280_temperature;BME280_humidity;BME280_pressure;Samples;Min_cycle;Max_cycle;Signal;HPM_P1;HPM_P2
2023/12/31 00:00:08;;;;;;;4.65;2.58;;;;;;;;;;5077659;28;20806;-81
2023/12/31 00:02:34;;;;;;;2.63;1.83;;;;;;;;;;5077499;28;20204;-81
2023/12/31 00:05:00;;;;;;;6.28;2.20;;;;;;;;;;5077361;28;20655;-82
2023/12/31 00:07:29;;;;;;;3.17;2.10;;;;;;;;;;5076368;28;20187;-80
2023/12/31 00:09:55;;;;;;;2.13;1.88;;;;;;;;;;5076415;28;20551;-81
2023/12/31 00:12:20;;;;;;;2.25;1.92;;;;;;;;;;5078070;28;20177;-81
2023/12/31 00:14:47;;;;;;;2.33;1.70;;;;;;;;;;5077391;28;20179;-81
2023/12/31 00:17:13;;;;;;;3.38;2.63;;;;;;;;;;5076205;28;20423;-81
2023/12/31 00:19:39;;;;;;;2.30;2.10;;;;;;;;;;5077218;28;20187;-81
2023/12/31 00:22:06;;;;;;;3.67;1.90;;;;;;;;;;5059755;28;20509;-81
2023/12/31 00:24:32;;;;;;;2.95;1.95;;;;;;;;;;5076317;28;20415;-81
2023/12/31 00:26:58;;;;;;;3.10;2.10;;;;;;;;;;5076201;28;20222;-82
2023/12/31 00:29:24;;;;;;;2.90;2.20;;;;;;;;;;5077543;28;20416;-81
2023/12/31 00:31:50;;;;;;;2.20;1.83;;;;;;;;;;5077359;28;20407;-81
2023/12/31 00:34:16;;;;;;;2.50;2.07;;;;;;;;;;5075793;28;20449;-81
2023/12/31 00:36:42;;;;;;;5.70;2.60;;;;;;;;;;5076328;28;20459;-81
2023/12/31 00:39:08;;;;;;;4.47;2.35;;;;;;;;;;5077099;28;20172;-82
2023/12/31 00:41:34;;;;;;;2.55;1.73;;;;;;;;;;5077344;28;20181;-81
2023/12/31 00:44:00;;;;;;;4.13;2.47;;;;;;;;;;5075989;28;20629;-82
2023/12/31 00:46:26;;;;;;;2.20;2.00;;;;;;;;;;5076996;28;20501;-81
2023/12/31 00:48:52;;;;;;;3.60;1.63;;;;;;;;;;5076862;28;20473;-81
2023/12/31 00:51:18;;;;;;;2.20;1.93;;;;;;;;;;5076235;28;20431;-82
2023/12/31 00:53:44;;;;;;;2.30;2.10;;;;;;;;;;5077146;28;20916;-81
2023/12/31 00:56:10;;;;;;;2.40;2.10;;;;;;;;;;5075710;28;20472;-81
2023/12/31 00:58:36;;;;;;;3.67;1.83;;;;;;;;;;5076947;28;20248;-81
2023/12/31 01:01:02;;;;;;;2.70;1.70;;;;;;;;;;5076579;28;20410;-82
2023/12/31 01:03:28;;;;;;;3.97;2.10;;;;;;;;;;5076835;28;20508;-81
2023/12/31 01:05:56;;;;;;;7.70;3.50;;;;;;;;;;5058862;28;20234;-84
2023/12/31 01:08:21;;;;;;;5.22;2.92;;;;;;;;;;5075489;28;20447;-82
2023/12/31 01:10:47;;;;;;;7.93;4.27;;;;;;;;;;5076565;28;20212;-82
2023/12/31 01:13:13;;;;;;;4.67;2.27;;;;;;;;;;5076336;28;20453;-81
2023/12/31 01:15:39;;;;;;;2.23;1.93;;;;;;;;;;5076228;28;20868;-81
2023/12/31 01:18:05;;;;;;;3.63;2.50;;;;;;;;;;5076888;28;20425;-81
2023/12/31 01:20:31;;;;;;;2.35;1.40;;;;;;;;;;5075326;28;20472;-81
2023/12/31 01:22:57;;;;;;;2.17;1.93;;;;;;;;;;5076496;28;20601;-82
2023/12/31 01:25:23;;;;;;;2.60;1.60;;;;;;;;;;5075244;28;20442;-82
2023/12/31 01:27:49;;;;;;;2.60;1.80;;;;;;;;;;5076386;28;20411;-82
2023/12/31 01:30:15;;;;;;;2.63;1.47;;;;;;;;;;5075902;28;20411;-82
2023/12/31 01:32:41;;;;;;;3.22;1.38;;;;;;;;;;5076648;28;20403;-82
2023/12/31 01:35:07;;;;;;;2.97;1.47;;;;;;;;;;5076213;28;20559;-81
2023/12/31 01:37:33;;;;;;;1.90;1.65;;;;;;;;;;5076212;28;20411;-81
2023/12/31 01:39:59;;;;;;;3.53;1.40;;;;;;;;;;5075930;28;20176;-82
2023/12/31 01:42:25;;;;;;;2.30;2.10;;;;;;;;;;5074667;28;20411;-81
2023/12/31 01:44:52;;;;;;;3.13;1.87;;;;;;;;;;5076203;28;20892;-82
2023/12/31 01:47:18;;;;;;;1.90;1.25;;;;;;;;;;5074812;28;20415;-82
2023/12/31 01:49:44;;;;;;;2.05;1.20;;;;;;;;;;5075818;28;20316;-82
2023/12/31 01:52:11;;;;;;;2.30;1.85;;;;;;;;;;5075491;28;20214;-82
2023/12/31 01:54:37;;;;;;;2.55;1.65;;;;;;;;;;5074977;28;20180;-82
2023/12/31 01:57:04;;;;;;;2.55;1.42;;;;;;;;;;5075686;28;20291;-81
2023/12/31 01:59:30;;;;;;;2.30;1.58;;;;;;;;;;5076351;28;20184;-82
2023/12/31 02:01:56;;;;;;;4.68;1.80;;;;;;;;;;5076125;28;20417;-81
2023/12/31 02:04:22;;;;;;;1.90;1.50;;;;;;;;;;5075784;28;20633;-81
2023/12/31 02:06:48;;;;;;;1.40;1.30;;;;;;;;;;5075746;28;20415;-81
2023/12/31 02:09:15;;;;;;;2.83;1.60;;;;;;;;;;5074434;28;20411;-81
2023/12/31 02:11:41;;;;;;;3.25;2.10;;;;;;;;;;5075272;28;20204;-82
2023/12/31 02:14:07;;;;;;;4.00;1.90;;;;;;;;;;5074150;28;20181;-82
2023/12/31 02:16:33;;;;;;;3.70;1.53;;;;;;;;;;5075395;28;20210;-81
2023/12/31 02:18:59;;;;;;;3.30;1.90;;;;;;;;;;5073886;28;20411;-83
2023/12/31 02:21:26;;;;;;;2.97;1.45;;;;;;;;;;5075426;28;20740;-82
2023/12/31 02:23:52;;;;;;;2.22;1.70;;;;;;;;;;5075744;28;20270;-81
2023/12/31 02:26:22;;;;;;;2.97;1.73;;;;;;;;;;5075144;28;20552;-82
2023/12/31 02:28:48;;;;;;;3.60;2.05;;;;;;;;;;5075258;28;20181;-82
2023/12/31 02:31:14;;;;;;;3.22;1.92;;;;;;;;;;5074731;28;20296;-82
2023/12/31 02:33:40;;;;;;;1.98;1.52;;;;;;;;;;5073700;28;20778;-81
2023/12/31 02:36:06;;;;;;;2.10;1.67;;;;;;;;;;5074768;28;20206;-82
2023/12/31 02:38:32;;;;;;;2.75;2.20;;;;;;;;;;5075412;28;20412;-81
2023/12/31 02:40:58;;;;;;;3.27;1.90;;;;;;;;;;5075009;28;20176;-81
2023/12/31 02:43:24;;;;;;;1.95;1.40;;;;;;;;;;5075531;28;20536;-81
2023/12/31 02:45:50;;;;;;;1.93;1.37;;;;;;;;;;5075192;28;20187;-82
2023/12/31 02:48:16;;;;;;;3.43;2.07;;;;;;;;;;5074231;28;20410;-82
2023/12/31 02:50:41;;;;;;;5.60;1.80;;;;;;;;;;5073474;28;20504;-81
2023/12/31 02:53:07;;;;;;;2.13;1.87;;;;;;;;;;5073418;28;20779;-82
2023/12/31 02:55:33;;;;;;;3.47;2.30;;;;;;;;;;5074882;28;20458;-82
2023/12/31 02:57:59;;;;;;;2.38;2.10;;;;;;;;;;5075050;28;20406;-81
2023/12/31 03:00:25;;;;;;;2.95;2.20;;;;;;;;;;5074890;28;20169;-82
2023/12/31 03:02:51;;;;;;;2.13;1.67;;;;;;;;;;5073774;28;20184;-81
2023/12/31 03:05:17;;;;;;;3.43;2.10;;;;;;;;;;5074001;28;20502;-81
2023/12/31 03:07:43;;;;;;;2.40;2.20;;;;;;;;;;5073795;28;20907;-82
2023/12/31 03:10:09;;;;;;;2.10;1.87;;;;;;;;;;5074735;28;20196;-82
2023/12/31 03:12:35;;;;;;;4.13;2.22;;;;;;;;;;5073996;28;20980;-82
2023/12/31 03:15:03;;;;;;;2.15;1.95;;;;;;;;;;5074431;28;20219;-81
2023/12/31 03:17:29;;;;;;;3.00;2.70;;;;;;;;;;5073888;28;20188;-81
2023/12/31 03:19:55;;;;;;;4.50;3.27;;;;;;;;;;5073639;28;20201;-81
2023/12/31 03:22:21;;;;;;;9.57;4.77;;;;;;;;;;5073294;28;20430;-82
2023/12/31 03:24:47;;;;;;;8.47;5.27;;;;;;;;;;5074493;28;20497;-82
2023/12/31 03:27:13;;;;;;;6.80;5.23;;;;;;;;;;5074821;28;20415;-81
2023/12/31 03:29:39;;;;;;;6.30;5.20;;;;;;;;;;5075001;28;20422;-81
2023/12/31 03:32:05;;;;;;;7.40;4.97;;;;;;;;;;5074739;28;20422;-82
2023/12/31 03:34:31;;;;;;;6.35;4.40;;;;;;;;;;5074748;28;20438;-82
2023/12/31 03:36:57;;;;;;;4.40;4.00;;;;;;;;;;5074347;28;20691;-82
2023/12/31 03:39:23;;;;;;;5.07;3.92;;;;;;;;;;5073754;28;20232;-82
2023/12/31 03:41:49;;;;;;;5.07;3.77;;;;;;;;;;5073638;28;20184;-81
2023/12/31 03:44:15;;;;;;;3.53;3.10;;;;;;;;;;5074154;28;20457;-81
2023/12/31 03:46:42;;;;;;;4.22;3.83;;;;;;;;;;5074540;28;20410;-82
2023/12/31 03:49:08;;;;;;;4.90;2.83;;;;;;;;;;5073886;28;20237;-82
2023/12/31 03:51:34;;;;;;;4.70;3.28;;;;;;;;;;5073480;28;20200;-82
2023/12/31 03:54:00;;;;;;;4.93;2.80;;;;;;;;;;5073042;28;20177;-82
2023/12/31 03:56:26;;;;;;;4.03;3.00;;;;;;;;;;5074231;28;20211;-81
2023/12/31 03:58:52;;;;;;;5.70;2.90;;;;;;;;;;5074124;28;20461;-82
2023/12/31 04:01:18;;;;;;;4.40;2.83;;;;;;;;;;5076039;28;20632;-82
2023/12/31 04:03:44;;;;;;;3.17;2.85;;;;;;;;;;5076833;28;20437;-81
2023/12/31 04:06:10;;;;;;;3.65;3.08;;;;;;;;;;5078293;28;20181;-82
2023/12/31 04:08:37;;;;;;;5.33;2.47;;;;;;;;;;5077712;28;20180;-81
2023/12/31 04:11:03;;;;;;;4.10;2.70;;;;;;;;;;5077877;28;20834;-82
2023/12/31 04:13:29;;;;;;;3.75;3.33;;;;;;;;;;5077825;28;20205;-81
2023/12/31 04:15:55;;;;;;;3.85;3.40;;;;;;;;;;5078027;28;20192;-81
2023/12/31 04:18:21;;;;;;;6.40;3.97;;;;;;;;;;5076213;28;20187;-82
2023/12/31 04:20:47;;;;;;;4.47;3.20;;;;;;;;;;5077443;28;20502;-82
2023/12/31 04:23:13;;;;;;;4.47;3.67;;;;;;;;;;5077282;28;20417;-82
2023/12/31 04:25:40;;;;;;;5.75;4.18;;;;;;;;;;5059714;28;20423;-82
2023/12/31 04:28:06;;;;;;;4.45;3.47;;;;;;;;;;5059556;28;20192;-85
2023/12/31 04:30:32;;;;;;;4.35;3.95;;;;;;;;;;5077316;28;20175;-82
2023/12/31 04:32:58;;;;;;;4.43;3.57;;;;;;;;;;5077474;28;20199;-81
2023/12/31 04:35:24;;;;;;;4.50;3.40;;;;;;;;;;5077433;28;20466;-82
2023/12/31 04:37:50;;;;;;;3.67;2.90;;;;;;;;;;5076969;28;20414;-81
2023/12/31 04:40:16;;;;;;;5.40;3.33;;;;;;;;;;5076154;28;20407;-82
2023/12/31 04:42:42;;;;;;;3.17;2.72;;;;;;;;;;5077410;28;20911;-81
2023/12/31 04:45:09;;;;;;;4.68;2.90;;;;;;;;;;5077225;28;20203;-82
2023/12/31 04:47:36;;;;;;;3.25;2.80;;;;;;;;;;5077187;28;20168;-82
2023/12/31 04:50:02;;;;;;;4.28;2.10;;;;;;;;;;5077186;28;20232;-82
2023/12/31 04:52:28;;;;;;;4.20;2.30;;;;;;;;;;5075778;28;20226;-81
2023/12/31 04:54:54;;;;;;;3.30;2.20;;;;;;;;;;5077320;28;20399;-81
2023/12/31 04:57:20;;;;;;;2.53;2.33;;;;;;;;;;5076850;28;20549;-81
2023/12/31 04:59:46;;;;;;;2.67;2.40;;;;;;;;;;5076902;28;20421;-81
2023/12/31 05:02:12;;;;;;;4.60;2.37;;;;;;;;;;5075210;28;20418;-82
2023/12/31 05:04:40;;;;;;;2.70;2.00;;;;;;;;;;5076897;28;20441;-82
2023/12/31 05:07:08;;;;;;;3.15;2.40;;;;;;;;;;5077195;28;20407;-82
2023/12/31 05:09:34;;;;;;;4.13;2.45;;;;;;;;;;5076835;28;20169;-82
2023/12/31 05:12:00;;;;;;;2.28;2.08;;;;;;;;;;5076193;28;20184;-82
2023/12/31 05:14:26;;;;;;;2.73;2.50;;;;;;;;;;5075935;28;20185;-82
2023/12/31 05:16:52;;;;;;;3.90;2.17;;;;;;;;;;5076351;28;20499;-82
2023/12/31 05:19:18;;;;;;;2.87;2.20;;;;;;;;;;5076272;28;20411;-82
2023/12/31 05:21:44;;;;;;;6.33;2.83;;;;;;;;;;5076279;28;20482;-82
2023/12/31 05:24:10;;;;;;;4.27;2.80;;;;;;;;;;5076021;28;20760;-85
2023/12/31 05:26:36;;;;;;;4.77;3.10;;;;;;;;;;5058268;28;20484;-81
2023/12/31 05:29:02;;;;;;;3.13;2.40;;;;;;;;;;5076308;28;20419;-81
2023/12/31 05:31:28;;;;;;;2.92;2.58;;;;;;;;;;5074518;28;20419;-82
2023/12/31 05:33:54;;;;;;;3.97;2.47;;;;;;;;;;5076131;28;20226;-82
2023/12/31 05:36:19;;;;;;;4.70;2.80;;;;;;;;;;5076140;28;20204;-82
2023/12/31 05:38:45;;;;;;;2.90;2.20;;;;;;;;;;5076110;28;20439;-82
2023/12/31 05:41:11;;;;;;;4.85;2.75;;;;;;;;;;5075724;28;20442;-83
2023/12/31 05:43:37;;;;;;;3.27;2.43;;;;;;;;;;5076324;28;20173;-82
2023/12/31 05:46:03;;;;;;;3.97;2.77;;;;;;;;;;5075163;28;20403;-82
2023/12/31 05:48:29;;;;;;;3.70;2.70;;;;;;;;;;5075621;28;20411;-82
2023/12/31 05:50:55;;;;;;;3.60;2.70;;;;;;;;;;5075843;28;20259;-82
2023/12/31 05:53:21;;;;;;;2.93;2.63;;;;;;;;;;5075867;28;20399;-82
2023/12/31 05:55:48;;;;;;;8.80;2.87;;;;;;;;;;5075587;28;20477;-82
2023/12/31 05:58:14;;;;;;;3.85;2.90;;;;;;;;;;5075190;28;20414;-82
2023/12/31 06:00:40;;;;;;;4.10;3.20;;;;;;;;;;5075660;28;20170;-82
2023/12/31 06:03:06;;;;;;;3.40;2.60;;;;;;;;;;5075658;28;20408;-82
2023/12/31 06:05:31;;;;;;;3.70;2.73;;;;;;;;;;5073907;28;20419;-82
2023/12/31 06:07:57;;;;;;;3.33;2.37;;;;;;;;;;5075468;28;20447;-82
2023/12/31 06:10:24;;;;;;;3.50;2.90;;;;;;;;;;5074250;28;20412;-82
2023/12/31 06:12:50;;;;;;;4.18;2.72;;;;;;;;;;5074247;28;20199;-81
2023/12/31 06:15:16;;;;;;;3.83;2.40;;;;;;;;;;5075286;28;20354;-82
2023/12/31 06:17:42;;;;;;;2.90;2.58;;;;;;;;;;5075427;28;20177;-82
2023/12/31 06:20:09;;;;;;;3.65;2.85;;;;;;;;;;5075371;28;20244;-83
2023/12/31 06:22:35;;;;;;;2.80;2.50;;;;;;;;;;5075156;28;20243;-81
2023/12/31 06:25:01;;;;;;;4.50;2.30;;;;;;;;;;5074592;28;20188;-82
2023/12/31 06:27:27;;;;;;;5.15;2.53;;;;;;;;;;5074794;28;20185;-82
2023/12/31 06:29:54;;;;;;;3.65;2.13;;;;;;;;;;5073832;28;20267;-81
2023/12/31 06:32:23;;;;;;;5.40;2.35;;;;;;;;;;5074811;28;20174;-82
2023/12/31 06:34:49;;;;;;;3.35;2.50;;;;;;;;;;5075113;28;20185;-81
2023/12/31 06:37:15;;;;;;;3.30;2.42;;;;;;;;;;5075200;28;20219;-82
2023/12/31 06:39:44;;;;;;;5.90;3.10;;;;;;;;;;5074885;28;20539;-82
2023/12/31 06:42:10;;;;;;;3.00;2.00;;;;;;;;;;5075125;28;20448;-82
2023/12/31 06:44:36;;;;;;;2.53;2.20;;;;;;;;;;5073248;28;20192;-82
2023/12/31 06:47:02;;;;;;;3.20;2.50;;;;;;;;;;5073661;28;20548;-81
2023/12/31 06:49:28;;;;;;;4.03;2.63;;;;;;;;;;5074342;28;20478;-82
2023/12/31 06:51:54;;;;;;;3.97;2.37;;;;;;;;;;5075321;28;20414;-81
2023/12/31 06:54:20;;;;;;;4.83;1.93;;;;;;;;;;5074773;28;20411;-82
2023/12/31 06:56:46;;;;;;;3.17;2.60;;;;;;;;;;5074633;28;20466;-83
2023/12/31 06:59:13;;;;;;;2.23;2.00;;;;;;;;;;5074362;28;20410;-83
2023/12/31 07:01:39;;;;;;;2.63;1.88;;;;;;;;;;5074783;28;20417;-82
2023/12/31 07:04:05;;;;;;;5.23;2.30;;;;;;;;;;5075067;28;20180;-81
2023/12/31 07:06:31;;;;;;;2.53;2.33;;;;;;;;;;5056800;28;20457;-82
2023/12/31 07:08:57;;;;;;;2.90;2.17;;;;;;;;;;5073685;28;20177;-82
2023/12/31 07:11:23;;;;;;;4.90;2.43;;;;;;;;;;5073727;28;20187;-82
2023/12/31 07:13:49;;;;;;;3.37;2.40;;;;;;;;;;5074223;28;20784;-82
2023/12/31 07:16:15;;;;;;;3.33;2.20;;;;;;;;;;5074305;28;20499;-82
2023/12/31 07:18:42;;;;;;;4.00;2.00;;;;;;;;;;5074438;28;20430;-82
2023/12/31 07:21:08;;;;;;;3.28;2.42;;;;;;;;;;5073349;28;20184;-81
2023/12/31 07:23:35;;;;;;;2.70;1.97;;;;;;;;;;5074142;28;20173;-82
2023/12/31 07:26:01;;;;;;;2.55;2.20;;;;;;;;;;5073485;28;20419;-82
2023/12/31 07:28:27;;;;;;;2.70;1.85;;;;;;;;;;5056219;28;20664;-82
2023/12/31 07:30:53;;;;;;;2.63;2.10;;;;;;;;;;5073940;28;20181;-82
2023/12/31 07:33:19;;;;;;;3.22;2.30;;;;;;;;;;5074115;28;20494;-82
2023/12/31 07:35:45;;;;;;;2.43;2.23;;;;;;;;;;5076702;28;20306;-82
2023/12/31 07:38:11;;;;;;;3.30;2.30;;;;;;;;;;5077275;28;20407;-82
2023/12/31 07:40:37;;;;;;;2.53;2.00;;;;;;;;;;5077972;28;20399;-82
2023/12/31 07:43:03;;;;;;;3.00;2.17;;;;;;;;;;5076603;28;20446;-83
2023/12/31 07:45:29;;;;;;;2.13;1.90;;;;;;;;;;5077882;28;20422;-82
2023/12/31 07:47:55;;;;;;;2.95;1.90;;;;;;;;;;5077150;28;20175;-82
2023/12/31 07:50:21;;;;;;;3.47;2.25;;;;;;;;;;5077390;28;20252;-82
2023/12/31 07:52:47;;;;;;;4.38;2.88;;;;;;;;;;5077850;28;20169;-82
2023/12/31 07:55:13;;;;;;;2.95;2.00;;;;;;;;;;5077710;28;20180;-82
2023/12/31 07:57:39;;;;;;;1.67;1.57;;;;;;;;;;5077875;28;20191;-82
2023/12/31 08:00:05;;;;;;;6.43;2.33;;;;;;;;;;5078561;28;20945;-82
2023/12/31 08:02:31;;;;;;;4.65;3.00;;;;;;;;;;5077979;28;20414;-82
2023/12/31 08:04:57;;;;;;;3.13;2.50;;;;;;;;;;5077701;28;20254;-82
2023/12/31 08:07:23;;;;;;;2.50;2.27;;;;;;;;;;5077212;28;20177;-82
2023/12/31 08:09:49;;;;;;;2.93;2.27;;;;;;;;;;5077915;28;20494;-82
2023/12/31 08:12:15;;;;;;;2.40;2.10;;;;;;;;;;5076453;28;20414;-83
2023/12/31 08:14:41;;;;;;;2.60;2.03;;;;;;;;;;5076812;28;20415;-82
2023/12/31 08:17:08;;;;;;;3.77;2.30;;;;;;;;;;5076175;28;20498;-81
2023/12/31 08:19:34;;;;;;;2.13;1.92;;;;;;;;;;5077182;28;20454;-82
2023/12/31 08:22:00;;;;;;;4.22;2.30;;;;;;;;;;5077825;28;20626;-81
2023/12/31 08:24:26;;;;;;;3.33;2.30;;;;;;;;;;5077153;28;20173;-82
2023/12/31 08:26:52;;;;;;;4.43;2.10;;;;;;;;;;5077723;28;20929;-82
2023/12/31 08:29:18;;;;;;;2.13;1.80;;;;;;;;;;5077509;28;20524;-82
2023/12/31 08:31:52;;;;;;;2.50;2.30;;;;;;;;;;5077336;28;20177;-81
2023/12/31 08:34:18;;;;;;;3.35;2.40;;;;;;;;;;5077738;28;20175;-81
2023/12/31 08:36:44;;;;;;;2.00;1.80;;;;;;;;;;5077442;28;20562;-82
2023/12/31 08:39:10;;;;;;;2.37;1.70;;;;;;;;;;5076811;28;20191;-83
2023/12/31 08:41:36;;;;;;;2.15;1.80;;;;;;;;;;5077209;28;20407;-82
2023/12/31 08:44:03;;;;;;;2.37;2.03;;;;;;;;;;5077188;28;20180;-82
2023/12/31 08:46:30;;;;;;;3.40;2.55;;;;;;;;;;5076018;28;20410;-82
2023/12/31 08:48:56;;;;;;;2.60;2.00;;;;;;;;;;5076818;28;20278;-82
2023/12/31 08:51:22;;;;;;;4.00;2.50;;;;;;;;;;5076760;28;20193;-85
2023/12/31 08:53:48;;;;;;;3.55;2.08;;;;;;;;;;5076702;28;20231;-82
2023/12/31 08:56:14;;;;;;;3.92;2.10;;;;;;;;;;5075754;28;20204;-82
2023/12/31 08:58:40;;;;;;;2.57;1.90;;;;;;;;;;5076596;28;20177;-82
2023/12/31 09:01:08;;;;;;;2.77;1.97;;;;;;;;;;5076440;28;20403;-82
2023/12/31 09:03:34;;;;;;;2.60;2.22;;;;;;;;;;5076317;28;20427;-82
2023/12/31 09:06:00;;;;;;;2.70;2.07;;;;;;;;;;5076896;28;20177;-83
2023/12/31 09:08:26;;;;;;;3.33;2.42;;;;;;;;;;5076558;28;20537;-83
2023/12/31 09:10:54;;;;;;;3.05;2.42;;;;;;;;;;5076497;28;20204;-82
2023/12/31 09:13:22;;;;;;;3.15;2.60;;;;;;;;;;5076687;28;20173;-82
2023/12/31 09:15:48;;;;;;;3.17;2.28;;;;;;;;;;5074663;28;20295;-82
2023/12/31 09:18:14;;;;;;;5.60;2.30;;;;;;;;;;5076377;28;20262;-82
2023/12/31 09:20:40;;;;;;;3.45;2.20;;;;;;;;;;5075006;28;20423;-83
2023/12/31 09:23:06;;;;;;;3.87;2.33;;;;;;;;;;5074929;28;20184;-82
2023/12/31 09:25:32;;;;;;;2.17;1.98;;;;;;;;;;5075949;28;20403;-82
2023/12/31 09:27:58;;;;;;;3.33;2.97;;;;;;;;;;5074908;28;20173;-82
2023/12/31 09:30:24;;;;;;;2.92;2.50;;;;;;;;;;5076266;28;20168;-82
2023/12/31 09:32:50;;;;;;;3.90;2.65;;;;;;;;;;5075402;28;20184;-81
2023/12/31 09:35:16;;;;;;;4.00;2.53;;;;;;;;;;5075076;28;20188;-81
2023/12/31 09:37:42;;;;;;;4.70;2.72;;;;;;;;;;5076149;28;20460;-82
2023/12/31 09:40:08;;;;;;;4.80;3.47;;;;;;;;;;5075663;28;20169;-82
2023/12/31 09:42:48;;;;;;;4.50;2.88;;;;;;;;;;5074724;28;20423;-82
2023/12/31 09:45:16;;;;;;;2.80;2.20;;;;;;;;;;5074789;28;20305;-82
2023/12/31 09:47:44;;;;;;;3.40;2.67;;;;;;;;;;5074271;28;20180;-82
2023/12/31 09:50:10;;;;;;;3.45;2.50;;;;;;;;;;5074409;28;20323;-81
2023/12/31 09:52:37;;;;;;;2.80;2.60;;;;;;;;;;5075611;28;20260;-82
2023/12/31 09:55:04;;;;;;;2.67;2.15;;;;;;;;;;5074351;28;20186;-82
2023/12/31 09:57:34;;;;;;;3.20;2.08;;;;;;;;;;5074020;28;20224;-82
2023/12/31 10:00:04;;;;;;;3.45;2.30;;;;;;;;;;5074971;28;20173;-82
2023/12/31 10:02:30;;;;;;;1.75;1.63;;;;;;;;;;5075006;28;20167;-82
2023/12/31 10:04:56;;;;;;;2.80;2.10;;;;;;;;;;5074095;28;20180;-81
2023/12/31 10:07:22;;;;;;;2.03;1.50;;;;;;;;;;5075684;28;20426;-81
2023/12/31 10:09:50;;;;;;;3.13;1.33;;;;;;;;;;5074491;28;20211;-81
2023/12/31 10:12:17;;;;;;;1.65;1.30;;;;;;;;;;5074496;28;20195;-82
2023/12/31 10:14:43;;;;;;;1.33;0.70;;;;;;;;;;5074616;28;20191;-82
2023/12/31 10:17:09;;;;;;;1.00;0.80;;;;;;;;;;5057470;28;20217;-80
2023/12/31 10:19:35;;;;;;;1.80;0.90;;;;;;;;;;5075691;28;20458;-82
2023/12/31 10:22:05;;;;;;;1.35;0.70;;;;;;;;;;5075596;28;20736;-80
2023/12/31 10:24:31;;;;;;;0.95;0.65;;;;;;;;;;5075450;28;20177;-81
2023/12/31 10:26:57;;;;;;;2.20;1.00;;;;;;;;;;5075472;28;20185;-81
2023/12/31 10:29:23;;;;;;;1.00;0.73;;;;;;;;;;5075321;28;20208;-81
2023/12/31 10:31:51;;;;;;;2.20;1.20;;;;;;;;;;5075186;28;20176;-81
2023/12/31 10:34:18;;;;;;;1.38;0.70;;;;;;;;;;5075575;28;20456;-81
2023/12/31 10:36:45;;;;;;;1.10;0.80;;;;;;;;;;5075498;28;20244;-81
2023/12/31 10:39:25;;;;;;;1.80;0.82;;;;;;;;;;5075105;28;20181;-81
2023/12/31 10:41:56;;;;;;;1.67;1.20;;;;;;;;;;5075538;28;20165;-81
2023/12/31 10:44:22;;;;;;;1.75;0.73;;;;;;;;;;5073745;28;20188;-81
2023/12/31 10:46:49;;;;;;;3.60;2.05;;;;;;;;;;5075039;28;20222;-81
2023/12/31 10:49:16;;;;;;;2.25;0.98;;;;;;;;;;5075043;28;20220;-81
2023/12/31 10:51:44;;;;;;;0.90;0.70;;;;;;;;;;5075040;28;20180;-81
2023/12/31 10:54:16;;;;;;;1.50;0.70;;;;;;;;;;5074117;28;20169;-81
2023/12/31 10:56:42;;;;;;;2.33;1.02;;;;;;;;;;5074643;28;20201;-81
2023/12/31 10:59:10;;;;;;;1.42;0.75;;;;;;;;;;5075394;28;20246;-81
2023/12/31 11:01:37;;;;;;;1.27;0.82;;;;;;;;;;5073442;28;20176;-81
2023/12/31 11:04:04;;;;;;;0.70;0.60;;;;;;;;;;5075236;28;20184;-81
2023/12/31 11:06:30;;;;;;;1.45;0.70;;;;;;;;;;5073980;28;20541;-83
2023/12/31 11:08:56;;;;;;;0.90;0.60;;;;;;;;;;5074832;28;20189;-81
2023/12/31 11:11:23;;;;;;;0.80;0.60;;;;;;;;;;5074833;28;20207;-81
2023/12/31 11:13:53;;;;;;;2.13;1.00;;;;;;;;;;5073369;28;20644;-82
2023/12/31 11:16:40;;;;;;;1.05;0.60;;;;;;;;;;5074961;28;20247;-81
2023/12/31 11:19:22;;;;;;;1.80;0.60;;;;;;;;;;5074917;28;20184;-81
2023/12/31 11:22:06;;;;;;;1.15;0.60;;;;;;;;;;5074791;28;20172;-81
2023/12/31 11:24:32;;;;;;;3.20;0.68;;;;;;;;;;5075003;28;20173;-82
2023/12/31 11:27:08;;;;;;;3.58;0.70;;;;;;;;;;5073772;28;20269;-81
2023/12/31 11:29:34;;;;;;;1.15;0.60;;;;;;;;;;5073502;28;20268;-81
2023/12/31 11:32:00;;;;;;;0.90;0.50;;;;;;;;;;5074579;28;20211;-81
2023/12/31 11:34:26;;;;;;;1.90;0.60;;;;;;;;;;5074628;28;20505;-81
2023/12/31 11:37:00;;;;;;;0.60;0.50;;;;;;;;;;5074684;28;20208;-81
2023/12/31 11:39:26;;;;;;;0.70;0.50;;;;;;;;;;5073969;28;20419;-81
2023/12/31 11:41:52;;;;;;;1.48;0.80;;;;;;;;;;5073204;28;20943;-81
2023/12/31 11:44:37;;;;;;;1.70;0.80;;;;;;;;;;5074785;28;20536;-81
2023/12/31 11:47:03;;;;;;;0.70;0.50;;;;;;;;;;5075085;28;20169;-81
2023/12/31 11:49:29;;;;;;;0.70;0.50;;;;;;;;;;5074398;28;20263;-81
2023/12/31 11:51:56;;;;;;;1.03;0.60;;;;;;;;;;5073280;28;20181;-81
2023/12/31 11:54:23;;;;;;;1.77;0.70;;;;;;;;;;5074739;28;20486;-81
2023/12/31 11:56:51;;;;;;;1.83;0.60;;;;;;;;;;5074156;28;20205;-81
2023/12/31 11:59:18;;;;;;;1.10;0.65;;;;;;;;;;5080841;28;20180;-81
2023/12/31 12:01:44;;;;;;;1.70;0.63;;;;;;;;;;5073324;28;20181;-81
2023/12/31 12:04:13;;;;;;;2.45;0.50;;;;;;;;;;5076348;28;20692;-80
2023/12/31 12:06:40;;;;;;;3.33;0.60;;;;;;;;;;5077794;28;20181;-81
2023/12/31 12:09:06;;;;;;;1.63;0.70;;;;;;;;;;5074262;28;20633;-80
2023/12/31 12:11:32;;;;;;;2.40;0.60;;;;;;;;;;5074743;28;20187;-81
2023/12/31 12:13:58;;;;;;;1.90;0.70;;;;;;;;;;5074243;28;20454;-81
2023/12/31 12:16:27;;;;;;;1.00;0.60;;;;;;;;;;5073703;28;20212;-81
2023/12/31 12:19:11;;;;;;;2.15;0.50;;;;;;;;;;5074000;28;20242;-81
2023/12/31 12:21:37;;;;;;;0.90;0.60;;;;;;;;;;5073630;28;20268;-80
2023/12/31 12:24:04;;;;;;;0.90;0.70;;;;;;;;;;5078033;28;20201;-81
2023/12/31 12:26:30;;;;;;;1.00;0.60;;;;;;;;;;5078067;28;20418;-81
2023/12/31 12:28:56;;;;;;;1.65;0.80;;;;;;;;;;5076611;28;20181;-81
2023/12/31 12:31:23;;;;;;;3.72;0.68;;;;;;;;;;5078005;28;20173;-81
2023/12/31 12:33:53;;;;;;;2.22;0.82;;;;;;;;;;5076489;28;20255;-81
2023/12/31 12:36:20;;;;;;;4.70;1.05;;;;;;;;;;5077522;28;20244;-81
2023/12/31 12:38:48;;;;;;;1.40;0.70;;;;;;;;;;5077420;28;20177;-81
2023/12/31 12:41:23;;;;;;;2.00;0.80;;;;;;;;;;5076807;28;20176;-81
2023/12/31 12:44:04;;;;;;;1.60;0.70;;;;;;;;;;5077338;28;20578;-81
2023/12/31 12:46:30;;;;;;;1.00;0.70;;;;;;;;;;5077832;28;20176;-81
2023/12/31 12:48:56;;;;;;;1.27;0.60;;;;;;;;;;5077249;28;20492;-81
2023/12/31 12:51:26;;;;;;;4.63;1.00;;;;;;;;;;5076692;28;20466;-81
2023/12/31 12:53:55;;;;;;;4.38;1.00;;;;;;;;;;5077621;28;20211;-81
2023/12/31 12:56:22;;;;;;;2.42;1.25;;;;;;;;;;5077833;28;20303;-81
2023/12/31 12:58:48;;;;;;;2.90;2.00;;;;;;;;;;5077126;28;20606;-81
2023/12/31 13:01:14;;;;;;;8.93;1.67;;;;;;;;;;5077843;28;20173;-82
2023/12/31 13:03:40;;;;;;;7.22;1.58;;;;;;;;;;5075613;28;20181;-81
2023/12/31 13:06:06;;;;;;;9.70;1.50;;;;;;;;;;5077189;28;20172;-80
2023/12/31 13:08:33;;;;;;;4.65;1.50;;;;;;;;;;5077023;28;20180;-81
2023/12/31 13:10:59;;;;;;;3.90;1.33;;;;;;;;;;5077039;28;20184;-81
2023/12/31 13:13:25;;;;;;;4.90;1.40;;;;;;;;;;5075621;28;20259;-81
2023/12/31 13:15:51;;;;;;;7.72;1.30;;;;;;;;;;5077076;28;20200;-81
2023/12/31 13:18:17;;;;;;;6.05;1.00;;;;;;;;;;5077049;28;20515;-81
2023/12/31 13:20:43;;;;;;;1.20;0.87;;;;;;;;;;5076984;28;20183;-81
2023/12/31 13:23:09;;;;;;;1.17;0.90;;;;;;;;;;5077312;28;20399;-81
2023/12/31 13:25:36;;;;;;;2.75;0.70;;;;;;;;;;5075644;28;20215;-81
2023/12/31 13:28:03;;;;;;;1.42;0.88;;;;;;;;;;5076747;28;20169;-81
2023/12/31 13:30:29;;;;;;;1.60;1.00;;;;;;;;;;5077224;28;20223;-81
2023/12/31 13:32:55;;;;;;;2.00;0.87;;;;;;;;;;5076338;28;20637;-81
2023/12/31 13:35:21;;;;;;;3.33;0.77;;;;;;;;;;5076551;28;20399;-81
2023/12/31 13:37:47;;;;;;;1.00;0.70;;;;;;;;;;5076425;28;20216;-81
2023/12/31 13:40:13;;;;;;;2.67;1.10;;;;;;;;;;5075370;28;20458;-81
2023/12/31 13:42:39;;;;;;;4.20;1.03;;;;;;;;;;5076457;28;20407;-85
2023/12/31 13:45:06;;;;;;;2.55;0.63;;;;;;;;;;5076556;28;20414;-81
2023/12/31 13:47:32;;;;;;;2.17;0.70;;;;;;;;;;5076187;28;20181;-82
2023/12/31 13:49:57;;;;;;;1.87;0.60;;;;;;;;;;5075943;28;20236;-81
2023/12/31 13:52:29;;;;;;;3.13;0.93;;;;;;;;;;5076409;28;20404;-81
2023/12/31 13:54:55;;;;;;;2.10;0.80;;;;;;;;;;5076029;28;20754;-81
2023/12/31 13:57:21;;;;;;;3.00;0.93;;;;;;;;;;5075772;28;20672;-81
2023/12/31 13:59:47;;;;;;;2.97;1.08;;;;;;;;;;5075891;28;20185;-81
2023/12/31 14:02:13;;;;;;;3.43;0.83;;;;;;;;;;5076393;28;20226;-81
2023/12/31 14:04:39;;;;;;;1.67;0.82;;;;;;;;;;5074859;28;20403;-81
2023/12/31 14:07:05;;;;;;;6.23;1.70;;;;;;;;;;5075616;28;20250;-82
2023/12/31 14:09:31;;;;;;;2.37;1.30;;;;;;;;;;5074735;28;20407;-81
2023/12/31 14:11:57;;;;;;;8.55;1.73;;;;;;;;;;5075688;28;20802;-81
2023/12/31 14:14:25;;;;;;;4.65;1.10;;;;;;;;;;5074228;28;20180;-81
2023/12/31 14:16:51;;;;;;;4.45;1.63;;;;;;;;;;5075207;28;20200;-82
2023/12/31 14:19:16;;;;;;;4.77;1.47;;;;;;;;;;5074020;28;20540;-81
2023/12/31 14:21:43;;;;;;;6.63;2.40;;;;;;;;;;5057329;28;20594;-82
2023/12/31 14:24:11;;;;;;;9.93;2.08;;;;;;;;;;5075732;28;20407;-81
2023/12/31 14:26:39;;;;;;;7.55;1.90;;;;;;;;;;5075432;28;20168;-82
2023/12/31 14:29:05;;;;;;;6.10;1.40;;;;;;;;;;5057461;28;20648;-81
2023/12/31 14:31:31;;;;;;;5.97;2.30;;;;;;;;;;5074981;28;20264;-82
2023/12/31 14:33:58;;;;;;;6.00;1.77;;;;;;;;;;5074737;28;20769;-82
2023/12/31 14:36:23;;;;;;;4.40;1.30;;;;;;;;;;5073829;28;20470;-81
2023/12/31 14:38:49;;;;;;;6.33;2.00;;;;;;;;;;5075095;28;20208;-81